Time;durP1;ratioP1;P1;durP2;ratioP2;P2;SDS_P1;SDS_P2;PMS_P1;PMS_P2;Temp;Humidity;BMP_temperature;BMP_pressure;BME280_temperature;BME280_humidity;BME280_pressure;Samples;Min_cycle;Max_cycle;Signal;HPM_P1;HPM_P2
2021/06/06 00:02:05;;;;;;;5.88;2.85;;;;;;;;;;10318560;28;20111;-57
2021/06/06 00:07:03;;;;;;;2.92;2.60;;;;;;;;;;10319189;28;20155;-54
2021/06/06 00:12:03;;;;;;;4.70;3.03;;;;;;;;;;10318003;28;20425;-55
2021/06/06 00:17:03;;;;;;;4.30;2.92;;;;;;;;;;10318403;28;20060;-53
2021/06/06 00:22:01;;;;;;;4.80;3.22;;;;;;;;;;10317706;28;20072;-55
2021/06/06 00:26:59;;;;;;;6.07;2.80;;;;;;;;;;10317750;28;20501;-54
2021/06/06 00:31:59;;;;;;;7.25;2.78;;;;;;;;;;10317748;28;20056;-54
2021/06/06 00:36:57;;;;;;;6.88;2.83;;;;;;;;;;10317614;28;20409;-53
2021/06/06 00:41:59;;;;;;;3.38;2.58;;;;;;;;;;10315055;28;20056;-54
2021/06/06 00:47:03;;;;;;;5.50;3.10;;;;;;;;;;10315338;28;20056;-54
2021/06/06 00:52:02;;;;;;;4.43;2.85;;;;;;;;;;10316534;28;20052;-52
2021/06/06 00:57:03;;;;;;;2.90;2.65;;;;;;;;;;10315206;28;20045;-55
2021/06/06 01:02:04;;;;;;;6.45;3.00;;;;;;;;;;10316460;28;20094;-55
2021/06/06 01:07:03;;;;;;;2.63;2.40;;;;;;;;;;10314886;28;20056;-54
2021/06/06 01:12:04;;;;;;;6.13;3.15;;;;;;;;;;10314227;28;20106;-55
2021/06/06 01:17:17;;;;;;;3.70;2.97;;;;;;;;;;10314365;28;20080;-54
2021/06/06 01:22:33;;;;;;;6.22;3.35;;;;;;;;;;10315868;28;20080;-54
2021/06/06 01:27:36;;;;;;;4.63;2.80;;;;;;;;;;10314649;28;20143;-56
2021/06/06 01:32:39;;;;;;;3.42;2.72;;;;;;;;;;10314391;28;20044;-55
2021/06/06 01:37:43;;;;;;;4.28;3.05;;;;;;;;;;10314051;28;20052;-55
2021/06/06 01:42:47;;;;;;;5.82;3.05;;;;;;;;;;10315255;28;20083;-56
2021/06/06 01:47:50;;;;;;;3.63;2.60;;;;;;;;;;10313701;28;20052;-57
2021/06/06 01:52:49;;;;;;;3.22;2.70;;;;;;;;;;10313290;28;20417;-56
2021/06/06 01:57:51;;;;;;;6.40;2.90;;;;;;;;;;10313400;28;20611;-54
2021/06/06 02:02:57;;;;;;;7.03;2.80;;;;;;;;;;10313274;28;20052;-53
2021/06/06 02:07:55;;;;;;;10.68;3.45;;;;;;;;;;10314742;28;20071;-55
2021/06/06 02:12:58;;;;;;;7.45;3.40;;;;;;;;;;10314905;28;20044;-55
2021/06/06 02:17:58;;;;;;;3.75;3.08;;;;;;;;;;10314222;28;20076;-56
2021/06/06 02:23:01;;;;;;;12.13;3.23;;;;;;;;;;10320840;28;20078;-54
2021/06/06 02:28:09;;;;;;;5.55;2.90;;;;;;;;;;10321521;28;20295;-54
2021/06/06 02:33:09;;;;;;;6.00;3.30;;;;;;;;;;10322836;28;20052;-55
2021/06/06 02:38:11;;;;;;;9.38;3.80;;;;;;;;;;10321060;28;20048;-54
2021/06/06 02:43:22;;;;;;;3.78;3.22;;;;;;;;;;10320913;28;20496;-52
2021/06/06 02:48:24;;;;;;;3.55;2.80;;;;;;;;;;10322643;28;20103;-55
2021/06/06 02:53:25;;;;;;;3.50;2.97;;;;;;;;;;10322179;28;20048;-55
2021/06/06 02:58:25;;;;;;;6.65;3.42;;;;;;;;;;10321848;28;20489;-53
2021/06/06 03:03:26;;;;;;;4.80;2.90;;;;;;;;;;10319785;28;20080;-53
2021/06/06 03:08:29;;;;;;;6.22;3.50;;;;;;;;;;10319583;28;20049;-54
2021/06/06 03:13:30;;;;;;;3.53;3.22;;;;;;;;;;10319514;28;20044;-54
2021/06/06 03:18:33;;;;;;;4.57;3.05;;;;;;;;;;10321401;28;20059;-51
2021/06/06 03:23:33;;;;;;;3.70;2.80;;;;;;;;;;10318919;28;20121;-54
2021/06/06 03:28:35;;;;;;;5.40;3.47;;;;;;;;;;10319654;28;20079;-54
2021/06/06 03:33:42;;;;;;;4.15;3.40;;;;;;;;;;10319041;28;20044;-56
2021/06/06 03:38:42;;;;;;;4.57;2.90;;;;;;;;;;10318444;28;20059;-52
2021/06/06 03:43:41;;;;;;;6.78;3.65;;;;;;;;;;10317374;28;20079;-55
2021/06/06 03:48:40;;;;;;;4.38;3.70;;;;;;;;;;10318303;28;20099;-53
2021/06/06 03:53:38;;;;;;;6.47;2.95;;;;;;;;;;10319604;28;20043;-50
2021/06/06 03:58:36;;;;;;;4.65;3.60;;;;;;;;;;10319310;28;20104;-54
2021/06/06 04:03:36;;;;;;;4.13;3.28;;;;;;;;;;10317233;28;20429;-54
2021/06/06 04:08:36;;;;;;;6.10;3.17;;;;;;;;;;10317012;28;20087;-55
2021/06/06 04:13:37;;;;;;;5.72;3.47;;;;;;;;;;10318853;28;20091;-52
2021/06/06 04:18:38;;;;;;;6.85;3.38;;;;;;;;;;10317025;28;20064;-56
2021/06/06 04:23:37;;;;;;;6.45;3.28;;;;;;;;;;10318331;28;20076;-55
2021/06/06 04:28:36;;;;;;;5.10;2.80;;;;;;;;;;10316156;28;20465;-55
2021/06/06 04:33:45;;;;;;;5.22;3.22;;;;;;;;;;10315294;28;20053;-55
2021/06/06 04:38:43;;;;;;;9.35;3.38;;;;;;;;;;10316215;28;20048;-55
2021/06/06 04:43:41;;;;;;;4.00;3.35;;;;;;;;;;10317160;28;20185;-54
2021/06/06 04:48:41;;;;;;;5.85;3.03;;;;;;;;;;10315468;28;20050;-55
2021/06/06 04:53:41;;;;;;;5.78;3.30;;;;;;;;;;10315537;28;20064;-54
2021/06/06 04:58:44;;;;;;;12.57;4.28;;;;;;;;;;10314954;28;20092;-52
2021/06/06 05:03:45;;;;;;;4.95;3.25;;;;;;;;;;10314606;28;20056;-52
2021/06/06 05:08:48;;;;;;;3.67;3.38;;;;;;;;;;10314812;28;20532;-57
2021/06/06 05:13:45;;;;;;;3.92;3.30;;;;;;;;;;10316227;28;20076;-55
2021/06/06 05:18:45;;;;;;;5.05;3.08;;;;;;;;;;10314283;28;20421;-53
2021/06/06 05:23:43;;;;;;;6.05;3.60;;;;;;;;;;10315833;28;20087;-55
2021/06/06 05:28:46;;;;;;;8.10;3.53;;;;;;;;;;10315530;28;20418;-55
2021/06/06 05:33:44;;;;;;;8.07;3.83;;;;;;;;;;10317256;28;20086;-55
2021/06/06 05:38:42;;;;;;;5.60;4.00;;;;;;;;;;10317209;28;20048;-56
2021/06/06 05:43:40;;;;;;;24.88;18.45;;;;;;;;;;10317090;28;20087;-53
2021/06/06 05:48:39;;;;;;;11.10;6.40;;;;;;;;;;10317113;28;20418;-55
2021/06/06 05:53:37;;;;;;;6.57;4.72;;;;;;;;;;10304267;28;20069;-50
2021/06/06 05:58:35;;;;;;;7.45;4.72;;;;;;;;;;10295537;28;20520;-54
2021/06/06 06:03:33;;;;;;;8.88;3.75;;;;;;;;;;10303649;28;20087;-55
2021/06/06 06:08:33;;;;;;;5.97;3.30;;;;;;;;;;10280258;28;20072;-56
2021/06/06 06:13:36;;;;;;;9.60;4.85;;;;;;;;;;10285624;28;20056;-54
2021/06/06 06:18:34;;;;;;;9.50;6.55;;;;;;;;;;10297738;28;20101;-50
2021/06/06 06:23:33;;;;;;;12.13;4.78;;;;;;;;;;10265385;28;20546;-56
2021/06/06 06:28:31;;;;;;;6.63;4.93;;;;;;;;;;10266162;28;20072;-55
2021/06/06 06:33:59;;;;;;;8.88;5.65;;;;;;;;;;10269467;28;20538;-54
2021/06/06 06:38:59;;;;;;;7.28;4.60;;;;;;;;;;10269386;28;20502;-56
2021/06/06 06:43:57;;;;;;;8.70;6.40;;;;;;;;;;10273472;28;20081;-56
2021/06/06 06:48:55;;;;;;;7.28;4.47;;;;;;;;;;10272596;28;20080;-55
2021/06/06 06:53:54;;;;;;;7.13;5.80;;;;;;;;;;10273477;28;20048;-53
2021/06/06 06:58:54;;;;;;;7.80;5.97;;;;;;;;;;10273348;28;20076;-56
2021/06/06 07:03:52;;;;;;;8.98;4.80;;;;;;;;;;10272448;28;20088;-54
2021/06/06 07:08:50;;;;;;;6.82;6.05;;;;;;;;;;10280580;28;20107;-55
2021/06/06 07:13:48;;;;;;;6.78;5.35;;;;;;;;;;10280421;28;20051;-56
2021/06/06 07:18:47;;;;;;;5.72;4.68;;;;;;;;;;10279169;28;20064;-57
2021/06/06 07:23:46;;;;;;;8.70;4.90;;;;;;;;;;10279869;28;20088;-55
2021/06/06 07:28:44;;;;;;;9.38;5.45;;;;;;;;;;10279691;28;20084;-55
2021/06/06 07:33:43;;;;;;;6.05;5.40;;;;;;;;;;10279584;28;20399;-55
2021/06/06 07:38:42;;;;;;;9.52;5.90;;;;;;;;;;10279369;28;20076;-55
2021/06/06 07:43:40;;;;;;;11.77;7.43;;;;;;;;;;10279340;28;20451;-56
2021/06/06 07:48:38;;;;;;;10.82;6.25;;;;;;;;;;10279068;28;20057;-54
2021/06/06 07:53:36;;;;;;;29.60;23.38;;;;;;;;;;10278834;28;20049;-56
2021/06/06 07:58:37;;;;;;;8.93;6.13;;;;;;;;;;10278715;28;20469;-57
2021/06/06 08:03:35;;;;;;;14.48;11.07;;;;;;;;;;10278610;28;20501;-56
2021/06/06 08:08:33;;;;;;;13.77;7.97;;;;;;;;;;10278322;28;20510;-56
2021/06/06 08:13:31;;;;;;;15.85;9.60;;;;;;;;;;10278312;28;20044;-55
2021/06/06 08:18:32;;;;;;;7.57;5.43;;;;;;;;;;10278012;28;20085;-55
2021/06/06 08:23:30;;;;;;;10.38;8.57;;;;;;;;;;10277111;28;20088;-55
2021/06/06 08:28:28;;;;;;;14.05;11.10;;;;;;;;;;10277642;28;20075;-55
2021/06/06 08:33:27;;;;;;;5.90;5.30;;;;;;;;;;10277031;28;20060;-56
2021/06/06 08:38:27;;;;;;;11.85;6.15;;;;;;;;;;10277163;28;20060;-55
2021/06/06 08:43:30;;;;;;;7.18;4.35;;;;;;;;;;10276888;28;20087;-55
2021/06/06 08:48:29;;;;;;;10.43;5.97;;;;;;;;;;10275054;28;20048;-56
2021/06/06 08:53:31;;;;;;;13.30;8.27;;;;;;;;;;10276877;28;20430;-54
2021/06/06 08:58:35;;;;;;;11.35;5.43;;;;;;;;;;10279161;28;20080;-50
2021/06/06 09:03:33;;;;;;;9.93;4.63;;;;;;;;;;10312742;28;20091;-54
2021/06/06 09:08:33;;;;;;;6.90;5.88;;;;;;;;;;10315306;28;20071;-52
2021/06/06 09:13:32;;;;;;;12.02;6.13;;;;;;;;;;10316212;28;20080;-54
2021/06/06 09:18:30;;;;;;;9.15;5.25;;;;;;;;;;10314186;28;20075;-54
2021/06/06 09:23:29;;;;;;;11.20;6.85;;;;;;;;;;10315841;28;20075;-54
2021/06/06 09:28:30;;;;;;;7.10;4.82;;;;;;;;;;10316140;28;20087;-54
2021/06/06 09:33:28;;;;;;;8.40;5.70;;;;;;;;;;10314724;28;20048;-57
2021/06/06 09:38:33;;;;;;;8.48;4.78;;;;;;;;;;10315613;28;20091;-56
2021/06/06 09:43:33;;;;;;;5.35;4.55;;;;;;;;;;10315472;28;20079;-56
2021/06/06 09:48:33;;;;;;;5.18;4.70;;;;;;;;;;10314520;28;20048;-55
2021/06/06 09:53:36;;;;;;;7.97;5.57;;;;;;;;;;10315402;28;20048;-55
2021/06/06 09:58:38;;;;;;;7.43;6.47;;;;;;;;;;10315707;28;20537;-55
2021/06/06 10:03:37;;;;;;;7.53;4.30;;;;;;;;;;10315207;28;20493;-55
2021/06/06 10:08:36;;;;;;;6.30;4.10;;;;;;;;;;10315288;28;20080;-57
2021/06/06 10:13:37;;;;;;;13.45;6.22;;;;;;;;;;10315193;28;20055;-55
2021/06/06 10:18:37;;;;;;;6.78;5.20;;;;;;;;;;10313616;28;20439;-57
2021/06/06 10:23:35;;;;;;;8.20;5.30;;;;;;;;;;10314832;28;20518;-56
2021/06/06 10:28:36;;;;;;;8.85;4.50;;;;;;;;;;10313122;28;20045;-52
2021/06/06 10:33:36;;;;;;;7.05;5.13;;;;;;;;;;10314712;28;20087;-56
2021/06/06 10:38:37;;;;;;;11.30;5.80;;;;;;;;;;10314886;28;20080;-53
2021/06/06 10:43:37;;;;;;;8.10;6.13;;;;;;;;;;10321992;28;20500;-55
2021/06/06 10:48:37;;;;;;;9.90;7.00;;;;;;;;;;10322011;28;20418;-56
2021/06/06 10:53:36;;;;;;;5.93;5.40;;;;;;;;;;10321910;28;20048;-55
2021/06/06 10:58:36;;;;;;;7.53;6.55;;;;;;;;;;10320752;28;20060;-55
2021/06/06 11:03:36;;;;;;;8.73;6.68;;;;;;;;;;10321640;28;20080;-55
2021/06/06 11:08:40;;;;;;;5.65;5.10;;;;;;;;;;10321498;28;20182;-55
2021/06/06 11:13:40;;;;;;;7.82;6.00;;;;;;;;;;10321106;28;20080;-55
2021/06/06 11:18:45;;;;;;;7.03;5.22;;;;;;;;;;10321115;28;20071;-55
2021/06/06 11:23:55;;;;;;;7.43;4.97;;;;;;;;;;10320643;28;20084;-52
2021/06/06 11:29:05;;;;;;;6.53;4.47;;;;;;;;;;10320897;28;20037;-54
2021/06/06 11:34:04;;;;;;;12.15;5.20;;;;;;;;;;10320698;28;20048;-55
2021/06/06 11:39:12;;;;;;;8.52;5.63;;;;;;;;;;10320308;28;20048;-55
2021/06/06 11:44:17;;;;;;;7.25;5.60;;;;;;;;;;10318231;28;20091;-53
2021/06/06 11:49:27;;;;;;;12.35;6.43;;;;;;;;;;10319336;28;20076;-55
2021/06/06 11:54:26;;;;;;;11.27;5.22;;;;;;;;;;10318001;28;20075;-51
2021/06/06 11:59:27;;;;;;;6.78;4.70;;;;;;;;;;10298927;28;20080;-54
2021/06/06 12:04:27;;;;;;;6.72;4.75;;;;;;;;;;10299646;28;20087;-54
2021/06/06 12:09:33;;;;;;;7.18;5.35;;;;;;;;;;10300051;28;20445;-51
2021/06/06 12:14:33;;;;;;;9.80;5.15;;;;;;;;;;10286107;28;20073;-52
2021/06/06 12:19:39;;;;;;;10.85;5.00;;;;;;;;;;10311610;28;20044;-51
2021/06/06 12:24:38;;;;;;;6.28;4.63;;;;;;;;;;10285616;28;20084;-52
2021/06/06 12:29:38;;;;;;;8.07;5.38;;;;;;;;;;10279134;28;20064;-54
2021/06/06 12:34:37;;;;;;;7.78;5.18;;;;;;;;;;10281333;28;20513;-53
2021/06/06 12:39:36;;;;;;;7.15;4.15;;;;;;;;;;10293769;28;20075;-55
2021/06/06 12:44:39;;;;;;;8.32;5.97;;;;;;;;;;10280368;28;20081;-52
2021/06/06 12:49:39;;;;;;;5.80;4.97;;;;;;;;;;10278763;28;20095;-54
2021/06/06 12:54:38;;;;;;;8.25;5.60;;;;;;;;;;10277129;28;20072;-54
2021/06/06 12:59:38;;;;;;;6.07;4.30;;;;;;;;;;10286854;28;20075;-51
2021/06/06 13:04:35;;;;;;;6.63;5.65;;;;;;;;;;10275230;28;20447;-53
2021/06/06 13:09:43;;;;;;;8.40;5.10;;;;;;;;;;10282000;28;20068;-54
2021/06/06 13:14:54;;;;;;;5.57;4.75;;;;;;;;;;10288711;28;20084;-54
2021/06/06 13:20:03;;;;;;;5.55;4.28;;;;;;;;;;10286349;28;20052;-54
2021/06/06 13:25:09;;;;;;;9.50;4.78;;;;;;;;;;10289437;28;20079;-55
2021/06/06 13:30:25;;;;;;;5.43;5.03;;;;;;;;;;10281101;28;20075;-57
2021/06/06 13:35:24;;;;;;;8.32;4.60;;;;;;;;;;10282331;28;20075;-53
2021/06/06 13:40:24;;;;;;;6.82;4.40;;;;;;;;;;10296872;28;20041;-56
2021/06/06 13:45:23;;;;;;;7.00;5.05;;;;;;;;;;10284624;28;20068;-58
2021/06/06 13:50:21;;;;;;;6.18;5.43;;;;;;;;;;10292904;28;20049;-57
2021/06/06 13:55:21;;;;;;;4.80;4.30;;;;;;;;;;10280004;28;20489;-55
2021/06/06 14:00:21;;;;;;;7.45;4.78;;;;;;;;;;10265537;28;20127;-57
2021/06/06 14:05:19;;;;;;;5.13;4.63;;;;;;;;;;10293627;28;20083;-55
2021/06/06 14:10:20;;;;;;;8.77;4.75;;;;;;;;;;10281678;28;20072;-58
2021/06/06 14:15:22;;;;;;;5.63;4.78;;;;;;;;;;10293124;28;20080;-56
2021/06/06 14:20:21;;;;;;;6.28;5.68;;;;;;;;;;10301549;28;20060;-57
2021/06/06 14:25:20;;;;;;;16.70;8.15;;;;;;;;;;10283037;28;20048;-57
2021/06/06 14:30:21;;;;;;;6.22;4.55;;;;;;;;;;10283808;28;20076;-57
2021/06/06 14:35:20;;;;;;;11.77;4.80;;;;;;;;;;10282680;28;20512;-58
2021/06/06 14:40:20;;;;;;;8.98;4.35;;;;;;;;;;10281690;28;20512;-57
2021/06/06 14:45:21;;;;;;;5.60;4.35;;;;;;;;;;10284094;28;20533;-58
2021/06/06 14:50:19;;;;;;;5.70;4.60;;;;;;;;;;10298391;28;20079;-57
2021/06/06 14:55:17;;;;;;;4.60;4.15;;;;;;;;;;10301371;28;20096;-59
2021/06/06 15:00:18;;;;;;;7.28;4.80;;;;;;;;;;10322219;28;20075;-58
2021/06/06 15:05:17;;;;;;;9.35;4.40;;;;;;;;;;10322114;28;20083;-57
2021/06/06 15:10:16;;;;;;;4.68;4.03;;;;;;;;;;10322623;28;20087;-58
2021/06/06 15:15:16;;;;;;;4.10;3.70;;;;;;;;;;10315220;28;20105;-58
2021/06/06 15:20:15;;;;;;;6.45;3.67;;;;;;;;;;10297365;28;20088;-58
2021/06/06 15:25:16;;;;;;;6.60;5.10;;;;;;;;;;10296292;28;20177;-58
2021/06/06 15:30:15;;;;;;;4.75;4.18;;;;;;;;;;10288394;28;20064;-57
2021/06/06 15:35:14;;;;;;;7.88;6.47;;;;;;;;;;10287076;28;20073;-58
2021/06/06 15:40:13;;;;;;;13.93;6.00;;;;;;;;;;10291694;28;20075;-58
2021/06/06 15:45:15;;;;;;;9.00;6.10;;;;;;;;;;10312953;28;20079;-58
2021/06/06 15:50:17;;;;;;;9.55;8.15;;;;;;;;;;10280040;28;20076;-58
2021/06/06 15:55:16;;;;;;;5.78;3.97;;;;;;;;;;10310444;28;20048;-58
2021/06/06 16:00:18;;;;;;;9.18;6.82;;;;;;;;;;10320374;28;20079;-59
2021/06/06 16:05:16;;;;;;;6.90;5.47;;;;;;;;;;10320671;28;20076;-59
2021/06/06 16:10:15;;;;;;;6.78;5.43;;;;;;;;;;10314146;28;20080;-58
2021/06/06 16:15:13;;;;;;;11.15;5.80;;;;;;;;;;10298856;28;20096;-58
2021/06/06 16:20:13;;;;;;;6.85;5.50;;;;;;;;;;10296953;28;20073;-58
2021/06/06 16:25:13;;;;;;;12.73;7.63;;;;;;;;;;10302221;28;20085;-59
2021/06/06 16:30:12;;;;;;;10.73;6.03;;;;;;;;;;10286308;28;20068;-58
2021/06/06 16:35:10;;;;;;;5.88;5.20;;;;;;;;;;10292847;28;20044;-58
2021/06/06 16:40:11;;;;;;;6.30;4.32;;;;;;;;;;10292056;28;20069;-55
2021/06/06 16:45:19;;;;;;;6.32;4.60;;;;;;;;;;10274123;28;20095;-58
2021/06/06 16:50:18;;;;;;;10.70;5.95;;;;;;;;;;10292618;28;20068;-57
2021/06/06 16:55:18;;;;;;;4.97;4.45;;;;;;;;;;10283322;28;20433;-58
2021/06/06 17:00:17;;;;;;;7.50;4.47;;;;;;;;;;10277703;28;20072;-58
2021/06/06 17:05:15;;;;;;;13.25;5.68;;;;;;;;;;10276507;28;20088;-59
2021/06/06 17:10:14;;;;;;;7.55;4.65;;;;;;;;;;10275853;28;20056;-58
2021/06/06 17:15:14;;;;;;;6.32;4.75;;;;;;;;;;10281084;28;20080;-59
2021/06/06 17:20:14;;;;;;;6.40;3.92;;;;;;;;;;10303864;28;20048;-58
2021/06/06 17:25:12;;;;;;;6.40;4.35;;;;;;;;;;10287484;28;20076;-57
2021/06/06 17:30:10;;;;;;;8.25;5.25;;;;;;;;;;10292703;28;20075;-58
2021/06/06 17:35:10;;;;;;;7.00;4.95;;;;;;;;;;10280541;28;20085;-57
2021/06/06 17:40:09;;;;;;;8.55;4.22;;;;;;;;;;10276426;28;20254;-59
2021/06/06 17:45:10;;;;;;;5.85;4.55;;;;;;;;;;10275752;28;20513;-58
2021/06/06 17:50:12;;;;;;;8.63;4.88;;;;;;;;;;10273290;28;20068;-59
2021/06/06 17:55:10;;;;;;;6.50;4.50;;;;;;;;;;10274417;28;20087;-56
2021/06/06 18:00:09;;;;;;;8.25;4.07;;;;;;;;;;10292870;28;20071;-53
2021/06/06 18:05:11;;;;;;;6.13;4.10;;;;;;;;;;10316818;28;20080;-57
2021/06/06 18:10:27;;;;;;;5.75;3.83;;;;;;;;;;10310272;28;20052;-59
2021/06/06 18:15:25;;;;;;;4.43;3.83;;;;;;;;;;10315798;28;20508;-57
2021/06/06 18:20:25;;;;;;;5.18;3.58;;;;;;;;;;10315899;28;20072;-57
2021/06/06 18:25:25;;;;;;;4.80;3.50;;;;;;;;;;10304303;28;20078;-57
2021/06/06 18:30:23;;;;;;;4.65;3.88;;;;;;;;;;10278315;28;20049;-53
2021/06/06 18:35:21;;;;;;;3.85;3.55;;;;;;;;;;10279700;28;20466;-57
2021/06/06 18:40:21;;;;;;;4.07;3.47;;;;;;;;;;10301741;28;20072;-58
2021/06/06 18:45:20;;;;;;;5.80;4.03;;;;;;;;;;10314920;28;20052;-57
2021/06/06 18:50:19;;;;;;;7.68;3.75;;;;;;;;;;10309940;28;20072;-57
2021/06/06 18:55:19;;;;;;;6.18;3.55;;;;;;;;;;10289174;28;20049;-57
2021/06/06 19:00:23;;;;;;;9.90;3.65;;;;;;;;;;10299085;28;20068;-57
2021/06/06 19:05:21;;;;;;;4.30;3.10;;;;;;;;;;10292419;28;20079;-58
2021/06/06 19:10:19;;;;;;;4.93;3.50;;;;;;;;;;10294063;28;20049;-58
2021/06/06 19:15:18;;;;;;;4.72;3.17;;;;;;;;;;10297703;28;20418;-59
2021/06/06 19:20:16;;;;;;;3.85;3.22;;;;;;;;;;10314860;28;20060;-58
2021/06/06 19:25:17;;;;;;;4.28;3.13;;;;;;;;;;10296328;28;20068;-57
2021/06/06 19:30:16;;;;;;;5.40;3.70;;;;;;;;;;10280654;28;20486;-57
2021/06/06 19:35:17;;;;;;;5.22;3.42;;;;;;;;;;10297221;28;20099;-57
2021/06/06 19:40:17;;;;;;;6.97;3.60;;;;;;;;;;10297446;28;20076;-57
2021/06/06 19:45:15;;;;;;;4.97;3.40;;;;;;;;;;10298356;28;20072;-58
2021/06/06 19:50:15;;;;;;;4.68;3.67;;;;;;;;;;10295179;28;20052;-56
2021/06/06 19:55:16;;;;;;;9.40;3.38;;;;;;;;;;10289824;28;20525;-57
2021/06/06 20:00:15;;;;;;;6.72;3.22;;;;;;;;;;10316034;28;20421;-57
2021/06/06 20:05:14;;;;;;;3.63;3.25;;;;;;;;;;10302376;28;20473;-57
2021/06/06 20:10:15;;;;;;;4.60;4.20;;;;;;;;;;10308661;28;20045;-57
2021/06/06 20:15:14;;;;;;;4.22;3.78;;;;;;;;;;10313206;28;20092;-58
2021/06/06 20:20:19;;;;;;;5.00;3.67;;;;;;;;;;10314222;28;20076;-58
2021/06/06 20:25:19;;;;;;;3.10;2.75;;;;;;;;;;10293864;28;20084;-57
2021/06/06 20:30:21;;;;;;;3.53;3.08;;;;;;;;;;10293826;28;20076;-57
2021/06/06 20:35:36;;;;;;;9.38;3.42;;;;;;;;;;10293668;28;20072;-58
2021/06/06 20:40:35;;;;;;;4.97;3.30;;;;;;;;;;10296643;28;20064;-58
2021/06/06 20:45:35;;;;;;;3.75;3.17;;;;;;;;;;10299451;28;20543;-57
2021/06/06 20:50:33;;;;;;;4.97;3.63;;;;;;;;;;10296685;28;20072;-57
2021/06/06 20:55:31;;;;;;;8.25;5.22;;;;;;;;;;10296905;28;20052;-57
2021/06/06 21:00:34;;;;;;;3.55;3.22;;;;;;;;;;10293775;28;20505;-58
2021/06/06 21:05:33;;;;;;;4.38;3.90;;;;;;;;;;10272767;28;20073;-58
2021/06/06 21:10:31;;;;;;;4.07;3.65;;;;;;;;;;10276880;28;20083;-56
2021/06/06 21:15:30;;;;;;;4.00;3.60;;;;;;;;;;10283383;28;20076;-57
2021/06/06 21:20:30;;;;;;;7.90;4.57;;;;;;;;;;10274581;28;20065;-58
2021/06/06 21:25:28;;;;;;;4.80;3.78;;;;;;;;;;10286672;28;20099;-58
2021/06/06 21:30:29;;;;;;;8.30;4.00;;;;;;;;;;10301010;28;20496;-58
2021/06/06 21:35:28;;;;;;;4.45;3.75;;;;;;;;;;10316765;28;20044;-58
2021/06/06 21:40:26;;;;;;;4.45;3.50;;;;;;;;;;10317113;28;20037;-58
2021/06/06 21:45:24;;;;;;;6.80;4.63;;;;;;;;;;10316162;28;20087;-57
2021/06/06 21:50:23;;;;;;;7.07;4.47;;;;;;;;;;10315404;28;20063;-57
2021/06/06 21:55:23;;;;;;;5.30;4.32;;;;;;;;;;10316639;28;20075;-58
2021/06/06 22:00:23;;;;;;;5.30;4.80;;;;;;;;;;10316721;28;20059;-57
2021/06/06 22:05:21;;;;;;;7.25;4.70;;;;;;;;;;10315952;28;20099;-58
2021/06/06 22:10:21;;;;;;;4.95;4.45;;;;;;;;;;10293658;28;20056;-57
2021/06/06 22:15:20;;;;;;;10.85;4.60;;;;;;;;;;10298845;28;20048;-58
2021/06/06 22:20:37;;;;;;;4.80;4.30;;;;;;;;;;10275048;28;20045;-58
2021/06/06 22:25:53;;;;;;;6.10;4.60;;;;;;;;;;10274958;28;20077;-57
2021/06/06 22:31:09;;;;;;;6.35;4.63;;;;;;;;;;10275417;28;20049;-58
2021/06/06 22:36:26;;;;;;;5.90;4.63;;;;;;;;;;10277390;28;20052;-58
2021/06/06 22:41:42;;;;;;;6.85;4.78;;;;;;;;;;10295280;28;20071;-57
2021/06/06 22:46:58;;;;;;;6.40;4.75;;;;;;;;;;10299094;28;20073;-57
2021/06/06 22:52:14;;;;;;;7.10;5.25;;;;;;;;;;10309632;28;20086;-57
2021/06/06 22:57:30;;;;;;;8.05;5.47;;;;;;;;;;10299776;28;20079;-58
2021/06/06 23:02:46;;;;;;;4.95;4.55;;;;;;;;;;10300210;28;20083;-58
2021/06/06 23:08:03;;;;;;;6.10;5.47;;;;;;;;;;10301542;28;20068;-54
2021/06/06 23:13:19;;;;;;;6.25;5.10;;;;;;;;;;10315222;28;20524;-58
2021/06/06 23:18:18;;;;;;;7.05;5.28;;;;;;;;;;10322889;28;20063;-55
2021/06/06 23:23:16;;;;;;;7.22;5.53;;;;;;;;;;10322463;28;20037;-57
2021/06/06 23:28:14;;;;;;;6.22;5.65;;;;;;;;;;10322148;28;20083;-56
2021/06/06 23:33:12;;;;;;;6.07;5.45;;;;;;;;;;10321989;28;20049;-55
2021/06/06 23:38:11;;;;;;;6.70;5.90;;;;;;;;;;10321981;28;20051;-58
2021/06/06 23:43:09;;;;;;;5.55;5.15;;;;;;;;;;10321806;28;20111;-57
2021/06/06 23:48:07;;;;;;;7.25;6.05;;;;;;;;;;10321418;28;20084;-57
2021/06/06 23:53:09;;;;;;;9.30;7.00;;;;;;;;;;10321428;28;20083;-58
2021/06/06 23:58:08;;;;;;;6.93;6.20;;;;;;;;;;10321217;28;20076;-58
